Time;durP1;ratioP1;P1;durP2;ratioP2;P2;SDS_P1;SDS_P2;PMS_P1;PMS_P2;Temp;Humidity;BMP_temperature;BMP_pressure;BME280_temperature;BME280_humidity;BME280_pressure;Samples;Min_cycle;Max_cycle;Signal;HPM_P1;HPM_P2
2021/03/15 00:00:39;;;;;;;10.05;6.57;;;;;;;;;;4999908;28;20035;-84
2021/03/15 00:03:05;;;;;;;9.93;6.53;;;;;;;;;;5000145;28;20030;-84
2021/03/15 00:05:31;;;;;;;11.82;6.50;;;;;;;;;;4999142;28;20062;-84
2021/03/15 00:07:57;;;;;;;10.25;6.90;;;;;;;;;;4999772;28;20029;-83
2021/03/15 00:10:24;;;;;;;9.48;6.65;;;;;;;;;;4998432;28;20029;-83
2021/03/15 00:12:50;;;;;;;10.73;6.53;;;;;;;;;;4999530;28;20069;-83
2021/03/15 00:15:17;;;;;;;11.23;6.85;;;;;;;;;;4999250;28;20022;-82
2021/03/15 00:17:44;;;;;;;12.05;7.60;;;;;;;;;;4998671;28;20026;-84
2021/03/15 00:20:11;;;;;;;10.05;6.90;;;;;;;;;;4999542;28;20500;-83
2021/03/15 00:22:37;;;;;;;11.35;7.28;;;;;;;;;;4999345;28;20042;-83
2021/03/15 00:25:03;;;;;;;13.10;8.02;;;;;;;;;;4999280;28;20027;-84
2021/03/15 00:27:29;;;;;;;14.30;7.55;;;;;;;;;;4999338;28;20029;-83
2021/03/15 00:29:55;;;;;;;14.15;7.82;;;;;;;;;;4999536;28;20106;-83
2021/03/15 00:32:22;;;;;;;13.38;7.22;;;;;;;;;;4999272;28;20025;-82
2021/03/15 00:34:48;;;;;;;11.35;7.05;;;;;;;;;;4998122;28;20027;-83
2021/03/15 00:37:14;;;;;;;10.82;7.13;;;;;;;;;;4999031;28;20027;-82
2021/03/15 00:39:40;;;;;;;10.85;7.22;;;;;;;;;;4998879;28;20081;-82
2021/03/15 00:42:07;;;;;;;11.55;7.15;;;;;;;;;;4998887;28;20409;-81
2021/03/15 00:44:33;;;;;;;13.48;8.20;;;;;;;;;;4997837;28;20413;-81
2021/03/15 00:46:59;;;;;;;17.17;10.55;;;;;;;;;;4998489;28;20030;-81
2021/03/15 00:49:26;;;;;;;22.30;14.15;;;;;;;;;;4997631;28;20046;-81
2021/03/15 00:51:52;;;;;;;30.83;16.83;;;;;;;;;;4998366;28;20042;-81
2021/03/15 00:54:20;;;;;;;37.42;20.23;;;;;;;;;;4998244;28;20030;-81
2021/03/15 00:56:46;;;;;;;42.47;22.88;;;;;;;;;;4998666;28;20472;-82
2021/03/15 00:59:12;;;;;;;34.75;19.13;;;;;;;;;;4998747;28;20373;-82
2021/03/15 01:01:39;;;;;;;26.67;15.23;;;;;;;;;;4997339;28;20049;-81
2021/03/15 01:04:05;;;;;;;18.85;11.40;;;;;;;;;;4998383;28;20026;-81
2021/03/15 01:06:31;;;;;;;16.92;9.57;;;;;;;;;;4998337;28;20026;-81
2021/03/15 01:08:57;;;;;;;13.80;8.18;;;;;;;;;;4998421;28;20061;-82
2021/03/15 01:11:25;;;;;;;11.65;7.20;;;;;;;;;;4998118;28;20054;-82
2021/03/15 01:13:52;;;;;;;15.15;6.80;;;;;;;;;;4998350;28;20109;-81
2021/03/15 01:16:18;;;;;;;11.73;6.88;;;;;;;;;;4998168;28;20026;-82
2021/03/15 01:18:44;;;;;;;12.10;7.25;;;;;;;;;;4997964;28;20018;-82
2021/03/15 01:21:13;;;;;;;13.13;8.63;;;;;;;;;;4998160;28;20040;-82
2021/03/15 01:23:39;;;;;;;18.60;10.05;;;;;;;;;;4998162;28;20488;-83
2021/03/15 01:26:06;;;;;;;15.45;10.18;;;;;;;;;;4998090;28;20772;-84
2021/03/15 01:28:32;;;;;;;21.35;12.18;;;;;;;;;;4998384;28;20321;-83
2021/03/15 01:30:59;;;;;;;27.27;17.77;;;;;;;;;;4998153;28;20113;-84
2021/03/15 01:33:26;;;;;;;34.38;20.58;;;;;;;;;;4998510;28;20038;-85
2021/03/15 01:35:52;;;;;;;29.70;19.58;;;;;;;;;;4998517;28;20023;-84
2021/03/15 01:38:18;;;;;;;22.40;15.15;;;;;;;;;;4998146;28;20045;-81
2021/03/15 01:40:44;;;;;;;20.42;12.95;;;;;;;;;;4996466;28;20060;-82
2021/03/15 01:43:11;;;;;;;15.40;9.82;;;;;;;;;;4997778;28;20034;-82
2021/03/15 01:45:37;;;;;;;11.60;7.68;;;;;;;;;;4997974;28;20069;-83
2021/03/15 01:48:04;;;;;;;11.32;6.82;;;;;;;;;;4998178;28;20027;-82
2021/03/15 01:50:30;;;;;;;9.23;6.63;;;;;;;;;;4997664;28;20435;-83
2021/03/15 01:52:56;;;;;;;9.77;6.43;;;;;;;;;;4997420;28;20053;-81
2021/03/15 01:55:24;;;;;;;11.32;7.07;;;;;;;;;;4997811;28;20051;-83
2021/03/15 01:57:50;;;;;;;9.55;7.10;;;;;;;;;;4997809;28;20069;-84
2021/03/15 02:00:18;;;;;;;11.82;7.15;;;;;;;;;;4997743;28;20057;-84
2021/03/15 02:02:46;;;;;;;10.93;7.30;;;;;;;;;;4997972;28;20125;-82
2021/03/15 02:05:13;;;;;;;8.38;6.50;;;;;;;;;;4997866;28;20029;-81
2021/03/15 02:07:39;;;;;;;10.38;7.32;;;;;;;;;;4997809;28;20026;-83
2021/03/15 02:10:06;;;;;;;11.95;7.32;;;;;;;;;;4997519;28;20407;-82
2021/03/15 02:12:45;;;;;;;16.17;9.80;;;;;;;;;;4997841;28;20027;-83
2021/03/15 02:15:23;;;;;;;18.50;10.65;;;;;;;;;;4997803;28;20029;-82
2021/03/15 02:17:58;;;;;;;27.65;16.10;;;;;;;;;;4997510;28;20027;-82
2021/03/15 02:20:35;;;;;;;36.10;19.58;;;;;;;;;;4997428;28;20034;-82
2021/03/15 02:23:15;;;;;;;41.40;21.33;;;;;;;;;;4997428;28;20034;-83
2021/03/15 02:25:59;;;;;;;37.83;22.00;;;;;;;;;;4997110;28;20117;-82
2021/03/15 02:28:43;;;;;;;43.83;22.08;;;;;;;;;;4996364;28;20030;-82
2021/03/15 02:31:23;;;;;;;31.63;17.52;;;;;;;;;;4996308;28;20113;-83
2021/03/15 02:34:08;;;;;;;24.23;12.65;;;;;;;;;;4997659;28;20026;-82
2021/03/15 02:36:39;;;;;;;12.98;7.72;;;;;;;;;;4997678;28;20356;-82
2021/03/15 02:39:10;;;;;;;12.25;6.53;;;;;;;;;;4997308;28;20026;-82
2021/03/15 02:41:36;;;;;;;10.43;6.53;;;;;;;;;;4997164;28;20030;-83
2021/03/15 02:44:04;;;;;;;7.35;5.82;;;;;;;;;;4997832;28;20022;-84
2021/03/15 02:46:31;;;;;;;11.85;6.35;;;;;;;;;;4996501;28;20022;-83
2021/03/15 02:49:00;;;;;;;13.23;6.57;;;;;;;;;;4997446;28;20066;-84
2021/03/15 02:51:28;;;;;;;10.48;6.18;;;;;;;;;;4996440;28;20084;-84
2021/03/15 02:53:56;;;;;;;8.88;6.22;;;;;;;;;;5001260;28;20429;-84
2021/03/15 02:56:23;;;;;;;11.40;6.38;;;;;;;;;;5001089;28;20026;-84
2021/03/15 02:58:50;;;;;;;12.63;6.25;;;;;;;;;;4999962;28;20029;-83
2021/03/15 03:01:20;;;;;;;11.30;6.53;;;;;;;;;;5001089;28;20042;-83
2021/03/15 03:03:51;;;;;;;11.70;6.25;;;;;;;;;;5000813;28;20026;-82
2021/03/15 03:06:19;;;;;;;12.07;6.60;;;;;;;;;;5000903;28;20043;-83
2021/03/15 03:08:46;;;;;;;11.45;6.50;;;;;;;;;;5000650;28;20022;-83
2021/03/15 03:11:13;;;;;;;13.98;6.65;;;;;;;;;;5000684;28;20026;-82
2021/03/15 03:13:42;;;;;;;11.82;6.18;;;;;;;;;;5000574;28;20413;-81
2021/03/15 03:16:08;;;;;;;12.85;6.57;;;;;;;;;;5000547;28;20353;-82
2021/03/15 03:18:35;;;;;;;9.70;5.82;;;;;;;;;;5000435;28;20085;-82
2021/03/15 03:21:02;;;;;;;11.43;6.18;;;;;;;;;;5000359;28;20369;-82
2021/03/15 03:23:31;;;;;;;13.82;6.93;;;;;;;;;;5000386;28;20117;-83
2021/03/15 03:25:57;;;;;;;15.13;6.80;;;;;;;;;;5000434;28;20029;-82
2021/03/15 03:28:25;;;;;;;9.35;5.88;;;;;;;;;;5000284;28;20026;-84
2021/03/15 03:30:51;;;;;;;16.30;6.60;;;;;;;;;;5000279;28;20479;-84
2021/03/15 03:33:18;;;;;;;9.95;5.90;;;;;;;;;;5000487;28;20073;-84
2021/03/15 03:35:44;;;;;;;10.35;5.45;;;;;;;;;;5000640;28;20054;-84
2021/03/15 03:38:11;;;;;;;11.15;5.90;;;;;;;;;;5000583;28;20022;-84
2021/03/15 03:40:37;;;;;;;9.52;5.30;;;;;;;;;;5000028;28;20027;-82
2021/03/15 03:43:03;;;;;;;8.20;6.03;;;;;;;;;;5000537;28;20412;-83
2021/03/15 03:45:30;;;;;;;9.32;5.15;;;;;;;;;;5000346;28;20040;-83
2021/03/15 03:47:56;;;;;;;12.80;6.05;;;;;;;;;;5000314;28;20027;-83
2021/03/15 03:50:27;;;;;;;10.55;5.07;;;;;;;;;;4999053;28;20043;-82
2021/03/15 03:52:56;;;;;;;10.25;5.32;;;;;;;;;;4999471;28;20174;-83
2021/03/15 03:55:23;;;;;;;12.90;5.55;;;;;;;;;;4999920;28;20019;-83
2021/03/15 03:57:51;;;;;;;9.63;5.72;;;;;;;;;;4999976;28;20027;-83
2021/03/15 04:00:18;;;;;;;8.60;5.60;;;;;;;;;;4999922;28;20030;-84
2021/03/15 04:02:48;;;;;;;10.98;5.88;;;;;;;;;;4999576;28;20049;-84
2021/03/15 04:05:20;;;;;;;10.13;5.53;;;;;;;;;;5000126;28;20337;-85
2021/03/15 04:07:48;;;;;;;11.60;6.50;;;;;;;;;;4999912;28;20050;-85
2021/03/15 04:10:15;;;;;;;7.25;5.22;;;;;;;;;;4999746;28;20030;-84
2021/03/15 04:12:44;;;;;;;8.63;5.68;;;;;;;;;;4998948;28;20026;-84
2021/03/15 04:15:11;;;;;;;11.23;5.63;;;;;;;;;;4999987;28;20103;-85
2021/03/15 04:17:40;;;;;;;13.45;6.03;;;;;;;;;;4999767;28;20025;-83
2021/03/15 04:20:09;;;;;;;12.05;5.95;;;;;;;;;;4999631;28;20034;-84
2021/03/15 04:22:47;;;;;;;11.63;6.45;;;;;;;;;;4999623;28;20027;-84
2021/03/15 04:25:14;;;;;;;8.82;5.50;;;;;;;;;;4998444;28;20030;-84
2021/03/15 04:27:42;;;;;;;9.90;6.30;;;;;;;;;;4999688;28;20101;-83
2021/03/15 04:30:09;;;;;;;9.02;5.53;;;;;;;;;;4999370;28;20180;-85
2021/03/15 04:32:35;;;;;;;9.70;6.03;;;;;;;;;;4999468;28;20033;-85
2021/03/15 04:35:02;;;;;;;8.18;5.78;;;;;;;;;;4999324;28;20401;-84
2021/03/15 04:37:28;;;;;;;10.57;5.97;;;;;;;;;;4998025;28;20033;-85
2021/03/15 04:39:55;;;;;;;9.65;6.15;;;;;;;;;;4999247;28;20027;-84
2021/03/15 04:42:21;;;;;;;10.85;5.80;;;;;;;;;;4999133;28;20026;-83
2021/03/15 04:44:47;;;;;;;11.50;5.60;;;;;;;;;;4999087;28;20026;-85
2021/03/15 04:47:14;;;;;;;8.38;5.45;;;;;;;;;;4998943;28;20033;-83
2021/03/15 04:49:41;;;;;;;12.18;6.22;;;;;;;;;;4998934;28;20073;-84
2021/03/15 04:52:07;;;;;;;12.80;6.20;;;;;;;;;;4998575;28;20054;-83
2021/03/15 04:54:33;;;;;;;9.05;5.55;;;;;;;;;;4998712;28;20117;-83
2021/03/15 04:56:59;;;;;;;12.07;6.70;;;;;;;;;;4998620;28;20038;-82
2021/03/15 04:59:27;;;;;;;10.45;6.35;;;;;;;;;;4997676;28;20065;-82
2021/03/15 05:01:54;;;;;;;10.82;5.80;;;;;;;;;;4998548;28;20057;-83
2021/03/15 05:04:22;;;;;;;13.55;6.43;;;;;;;;;;4998571;28;20030;-83
2021/03/15 05:06:49;;;;;;;11.10;6.43;;;;;;;;;;4997438;28;20026;-82
2021/03/15 05:09:16;;;;;;;10.65;6.13;;;;;;;;;;4998408;28;20435;-82
2021/03/15 05:11:42;;;;;;;13.80;6.43;;;;;;;;;;4997419;28;20416;-86
2021/03/15 05:14:09;;;;;;;10.02;6.63;;;;;;;;;;4998207;28;20417;-84
2021/03/15 05:16:42;;;;;;;9.73;6.88;;;;;;;;;;4998165;28;20026;-84
2021/03/15 05:19:10;;;;;;;11.10;6.80;;;;;;;;;;4997437;28;20026;-84
2021/03/15 05:21:37;;;;;;;10.50;6.95;;;;;;;;;;4998637;28;20031;-83
2021/03/15 05:24:04;;;;;;;12.82;7.35;;;;;;;;;;4998708;28;20035;-84
2021/03/15 05:26:31;;;;;;;12.57;8.15;;;;;;;;;;4998419;28;20425;-84
2021/03/15 05:29:00;;;;;;;13.23;9.20;;;;;;;;;;4998276;28;20031;-84
2021/03/15 05:31:27;;;;;;;24.55;14.50;;;;;;;;;;4998223;28;20318;-84
2021/03/15 05:33:53;;;;;;;26.15;15.55;;;;;;;;;;4998418;28;20022;-85
2021/03/15 05:36:20;;;;;;;18.38;12.32;;;;;;;;;;4998649;28;20060;-84
2021/03/15 05:38:47;;;;;;;16.00;10.75;;;;;;;;;;4997400;28;20025;-85
2021/03/15 05:41:13;;;;;;;19.25;11.68;;;;;;;;;;4998119;28;20113;-84
2021/03/15 05:43:39;;;;;;;18.33;12.18;;;;;;;;;;4997093;28;20117;-83
2021/03/15 05:46:14;;;;;;;17.45;10.95;;;;;;;;;;4998078;28;20042;-84
2021/03/15 05:49:07;;;;;;;16.75;11.77;;;;;;;;;;4996991;28;20069;-83
2021/03/15 05:51:57;;;;;;;19.02;12.10;;;;;;;;;;4996556;28;20038;-84
2021/03/15 05:54:35;;;;;;;16.17;11.65;;;;;;;;;;4997982;28;20022;-84
2021/03/15 05:57:19;;;;;;;15.93;10.95;;;;;;;;;;4997921;28;20117;-85
2021/03/15 06:00:06;;;;;;;17.25;11.10;;;;;;;;;;4998006;28;20045;-85
2021/03/15 06:02:58;;;;;;;14.20;9.98;;;;;;;;;;4998041;28;20042;-84
2021/03/15 06:05:25;;;;;;;15.30;9.90;;;;;;;;;;4997903;28;20034;-84
2021/03/15 06:07:52;;;;;;;13.38;9.23;;;;;;;;;;4998058;28;20066;-84
2021/03/15 06:10:29;;;;;;;13.73;9.55;;;;;;;;;;4998006;28;20030;-86
2021/03/15 06:13:06;;;;;;;16.05;10.00;;;;;;;;;;4996890;28;20031;-86
2021/03/15 06:15:45;;;;;;;13.15;9.07;;;;;;;;;;4997874;28;20322;-84
2021/03/15 06:18:15;;;;;;;12.98;8.63;;;;;;;;;;4996866;28;20033;-84
2021/03/15 06:20:48;;;;;;;10.98;7.97;;;;;;;;;;4997943;28;20108;-84
2021/03/15 06:23:15;;;;;;;10.80;8.05;;;;;;;;;;4997717;28;20034;-85
2021/03/15 06:25:42;;;;;;;13.40;8.75;;;;;;;;;;4997413;28;20373;-84
2021/03/15 06:28:08;;;;;;;13.20;7.90;;;;;;;;;;5001798;28;20053;-84
2021/03/15 06:30:35;;;;;;;12.07;7.07;;;;;;;;;;5000729;28;20057;-84
2021/03/15 06:33:01;;;;;;;11.88;7.22;;;;;;;;;;5001521;28;20101;-83
2021/03/15 06:35:29;;;;;;;11.55;7.60;;;;;;;;;;5001092;28;20023;-84
2021/03/15 06:37:55;;;;;;;11.30;7.32;;;;;;;;;;4998854;28;20070;-94
2021/03/15 06:40:22;;;;;;;12.18;8.00;;;;;;;;;;4997128;28;20038;-88
2021/03/15 06:42:50;;;;;;;10.45;7.07;;;;;;;;;;4999494;28;20065;-85
2021/03/15 06:45:16;;;;;;;10.93;7.40;;;;;;;;;;4986886;28;20029;-86
2021/03/15 06:47:43;;;;;;;12.80;7.57;;;;;;;;;;4994911;28;20418;-89
2021/03/15 06:50:10;;;;;;;13.32;8.00;;;;;;;;;;4997239;28;20050;-89
2021/03/15 06:52:52;;;;;;;9.27;6.72;;;;;;;;;;4999534;28;20049;-89
2021/03/15 06:55:18;;;;;;;12.93;7.90;;;;;;;;;;5001752;28;20057;-88
2021/03/15 06:57:47;;;;;;;17.45;8.50;;;;;;;;;;5001417;28;20034;-88
2021/03/15 07:00:13;;;;;;;23.00;11.93;;;;;;;;;;5001367;28;20022;-88
2021/03/15 07:02:41;;;;;;;16.48;11.13;;;;;;;;;;5001440;28;20027;-88
2021/03/15 07:05:16;;;;;;;21.95;11.80;;;;;;;;;;5001438;28;20018;-88
2021/03/15 07:07:49;;;;;;;22.65;13.80;;;;;;;;;;4982715;28;20425;-85
2021/03/15 07:10:17;;;;;;;37.88;18.63;;;;;;;;;;4981542;28;20414;-86
2021/03/15 07:12:43;;;;;;;32.03;17.75;;;;;;;;;;4981654;28;20107;-86
2021/03/15 07:15:09;;;;;;;13.93;10.05;;;;;;;;;;4981647;28;20073;-86
2021/03/15 07:17:36;;;;;;;15.85;9.88;;;;;;;;;;4981544;28;20062;-86
2021/03/15 07:20:02;;;;;;;16.15;9.52;;;;;;;;;;4981538;28;20022;-85
2021/03/15 07:22:28;;;;;;;20.90;12.90;;;;;;;;;;4981345;28;20023;-86
2021/03/15 07:25:02;;;;;;;17.13;10.02;;;;;;;;;;4981395;28;20086;-85
2021/03/15 07:27:29;;;;;;;39.95;20.85;;;;;;;;;;4980522;28;20405;-86
2021/03/15 07:29:55;;;;;;;44.70;21.02;;;;;;;;;;4981232;28;20030;-86
2021/03/15 07:32:38;;;;;;;20.40;12.35;;;;;;;;;;4981210;28;20030;-86
2021/03/15 07:35:23;;;;;;;17.92;11.32;;;;;;;;;;4981307;28;20455;-86
2021/03/15 07:37:50;;;;;;;14.75;9.73;;;;;;;;;;4979428;28;20026;-86
2021/03/15 07:40:34;;;;;;;15.10;9.68;;;;;;;;;;4981409;28;20026;-86
2021/03/15 07:43:04;;;;;;;17.10;10.70;;;;;;;;;;4981050;28;20394;-86
2021/03/15 07:45:35;;;;;;;16.98;11.23;;;;;;;;;;4980958;28;20027;-86
2021/03/15 07:48:05;;;;;;;20.55;14.07;;;;;;;;;;4980434;28;20034;-86
2021/03/15 07:50:31;;;;;;;22.35;13.82;;;;;;;;;;4981051;28;20023;-85
2021/03/15 07:52:57;;;;;;;17.88;11.55;;;;;;;;;;4980609;28;20057;-86
2021/03/15 07:55:44;;;;;;;17.73;11.63;;;;;;;;;;4980565;28;20027;-86
2021/03/15 07:58:28;;;;;;;20.58;12.60;;;;;;;;;;4980718;28;20426;-86
2021/03/15 08:00:55;;;;;;;17.30;10.77;;;;;;;;;;4980645;28;20054;-86
2021/03/15 08:03:23;;;;;;;16.02;10.32;;;;;;;;;;4980669;28;20030;-81
2021/03/15 08:05:49;;;;;;;15.00;10.32;;;;;;;;;;4980797;28;20097;-86
2021/03/15 08:08:15;;;;;;;15.68;10.00;;;;;;;;;;4980690;28;20042;-85
2021/03/15 08:10:42;;;;;;;17.85;10.93;;;;;;;;;;4980399;28;20414;-85
2021/03/15 08:13:11;;;;;;;14.13;9.68;;;;;;;;;;4980574;28;20032;-84
2021/03/15 08:15:38;;;;;;;15.25;10.38;;;;;;;;;;4980168;28;20026;-86
2021/03/15 08:18:05;;;;;;;17.33;11.00;;;;;;;;;;4980384;28;20023;-85
2021/03/15 08:20:32;;;;;;;16.38;9.73;;;;;;;;;;4980421;28;20027;-85
2021/03/15 08:23:00;;;;;;;14.95;9.82;;;;;;;;;;4979265;28;20501;-85
2021/03/15 08:25:26;;;;;;;14.55;10.27;;;;;;;;;;4980313;28;20311;-86
2021/03/15 08:27:52;;;;;;;18.15;9.93;;;;;;;;;;4980169;28;20025;-86
2021/03/15 08:30:23;;;;;;;18.38;10.32;;;;;;;;;;4978778;28;20085;-87
2021/03/15 08:32:49;;;;;;;19.77;11.27;;;;;;;;;;4978944;28;20373;-86
2021/03/15 08:35:16;;;;;;;17.75;10.68;;;;;;;;;;4980457;28;20019;-86
2021/03/15 08:38:08;;;;;;;21.77;12.80;;;;;;;;;;4979972;28;20034;-87
2021/03/15 08:40:43;;;;;;;21.83;13.40;;;;;;;;;;4978148;28;20038;-87
2021/03/15 08:43:19;;;;;;;14.73;10.57;;;;;;;;;;4980143;28;20031;-86
2021/03/15 08:46:01;;;;;;;16.58;11.02;;;;;;;;;;4980158;28;20106;-86
2021/03/15 08:48:27;;;;;;;;;;;;;;;;;;4980188;28;20038;-86
2021/03/15 08:50:57;;;;;;;15.45;10.07;;;;;;;;;;4979545;28;19914;-85
2021/03/15 08:53:42;;;;;;;20.00;10.57;;;;;;;;;;4979623;28;20070;-85
2021/03/15 08:56:11;;;;;;;23.67;13.50;;;;;;;;;;4979796;28;20027;-85
2021/03/15 08:58:37;;;;;;;14.82;10.18;;;;;;;;;;4979562;28;20046;-85
2021/03/15 09:01:04;;;;;;;12.38;8.35;;;;;;;;;;4978547;28;20139;-87
2021/03/15 09:03:46;;;;;;;20.00;11.43;;;;;;;;;;4979652;28;20057;-85
2021/03/15 09:06:12;;;;;;;13.50;8.52;;;;;;;;;;4979683;28;20027;-85
2021/03/15 09:08:57;;;;;;;12.75;8.40;;;;;;;;;;4979674;28;20410;-86
2021/03/15 09:11:35;;;;;;;14.25;8.85;;;;;;;;;;4979452;28;20038;-89
2021/03/15 09:14:17;;;;;;;15.70;9.68;;;;;;;;;;4979392;28;20310;-85
2021/03/15 09:16:43;;;;;;;15.25;9.40;;;;;;;;;;4979545;28;20026;-85
2021/03/15 09:19:19;;;;;;;15.18;10.40;;;;;;;;;;4979537;28;20158;-85
2021/03/15 09:21:51;;;;;;;14.25;9.25;;;;;;;;;;4979113;28;20035;-85
2021/03/15 09:24:36;;;;;;;16.90;9.80;;;;;;;;;;4979143;28;20081;-84
2021/03/15 09:27:03;;;;;;;15.20;9.95;;;;;;;;;;4979026;28;20038;-84
2021/03/15 09:29:36;;;;;;;13.73;9.48;;;;;;;;;;4979211;28;20053;-85
2021/03/15 09:32:07;;;;;;;14.80;9.75;;;;;;;;;;4979147;28;20417;-84
2021/03/15 09:34:34;;;;;;;16.33;10.90;;;;;;;;;;4979008;28;20030;-84
2021/03/15 09:37:01;;;;;;;20.80;12.30;;;;;;;;;;4978727;28;20023;-84
2021/03/15 09:39:29;;;;;;;16.90;10.63;;;;;;;;;;4979534;28;20023;-84
2021/03/15 09:41:56;;;;;;;21.25;12.32;;;;;;;;;;4998405;28;20026;-84
2021/03/15 09:44:23;;;;;;;26.35;14.15;;;;;;;;;;4998337;28;20033;-84
2021/03/15 09:46:50;;;;;;;17.73;11.07;;;;;;;;;;4996847;28;20074;-85
2021/03/15 09:49:31;;;;;;;26.27;15.15;;;;;;;;;;4998208;28;20424;-85
2021/03/15 09:52:08;;;;;;;21.10;12.32;;;;;;;;;;4997866;28;20039;-87
2021/03/15 09:54:38;;;;;;;23.58;13.30;;;;;;;;;;4998260;28;20030;-85
2021/03/15 09:57:04;;;;;;;21.40;12.75;;;;;;;;;;4997815;28;20022;-85
2021/03/15 09:59:30;;;;;;;24.45;12.85;;;;;;;;;;4997950;28;20436;-85
2021/03/15 10:01:56;;;;;;;13.23;8.88;;;;;;;;;;4996489;28;20038;-85
2021/03/15 10:04:22;;;;;;;11.05;8.15;;;;;;;;;;4997805;28;20034;-85
2021/03/15 10:06:49;;;;;;;14.30;8.50;;;;;;;;;;4997866;28;20440;-84
2021/03/15 10:09:17;;;;;;;11.13;8.10;;;;;;;;;;4998118;28;20030;-86
2021/03/15 10:11:44;;;;;;;12.70;8.80;;;;;;;;;;4997721;28;20436;-85
2021/03/15 10:14:10;;;;;;;16.90;10.18;;;;;;;;;;4997859;28;20022;-85
2021/03/15 10:16:51;;;;;;;18.40;11.15;;;;;;;;;;4997557;28;20061;-84
2021/03/15 10:19:27;;;;;;;16.08;9.45;;;;;;;;;;4997946;28;20026;-85
2021/03/15 10:21:54;;;;;;;19.20;12.63;;;;;;;;;;4998274;28;20027;-85
2021/03/15 10:24:36;;;;;;;10.90;8.32;;;;;;;;;;4998103;28;20041;-85
2021/03/15 10:27:03;;;;;;;15.75;10.55;;;;;;;;;;4997814;28;20029;-85
2021/03/15 10:29:29;;;;;;;20.00;11.23;;;;;;;;;;4996939;28;20034;-85
2021/03/15 10:31:59;;;;;;;12.13;9.00;;;;;;;;;;4996556;28;20054;-85
2021/03/15 10:34:25;;;;;;;18.83;12.23;;;;;;;;;;4998059;28;20030;-84
2021/03/15 10:36:51;;;;;;;12.73;8.88;;;;;;;;;;4997551;28;20018;-85
2021/03/15 10:39:19;;;;;;;18.95;10.85;;;;;;;;;;4997680;28;20022;-85
2021/03/15 10:41:45;;;;;;;22.48;12.50;;;;;;;;;;4996346;28;20035;-85
2021/03/15 10:44:12;;;;;;;15.75;9.65;;;;;;;;;;4997714;28;20118;-85
2021/03/15 10:46:45;;;;;;;12.38;8.90;;;;;;;;;;4997396;28;20026;-85
2021/03/15 10:49:31;;;;;;;14.85;9.35;;;;;;;;;;4997826;28;20032;-85
2021/03/15 10:51:57;;;;;;;15.50;9.73;;;;;;;;;;4996118;28;20089;-85
2021/03/15 10:54:29;;;;;;;12.93;9.85;;;;;;;;;;4997560;28;20037;-85
2021/03/15 10:57:08;;;;;;;14.88;9.32;;;;;;;;;;4996510;28;20110;-85
2021/03/15 10:59:35;;;;;;;13.30;8.88;;;;;;;;;;4997459;28;20073;-85
2021/03/15 11:02:01;;;;;;;11.25;8.38;;;;;;;;;;4997277;28;20114;-85
2021/03/15 11:04:37;;;;;;;15.82;9.10;;;;;;;;;;4997327;28;20436;-85
2021/03/15 11:07:22;;;;;;;12.98;9.00;;;;;;;;;;4997625;28;20417;-85
2021/03/15 11:09:55;;;;;;;11.65;8.45;;;;;;;;;;4997522;28;20045;-84
2021/03/15 11:12:35;;;;;;;10.65;8.35;;;;;;;;;;4996432;28;20027;-85
2021/03/15 11:15:07;;;;;;;15.50;10.75;;;;;;;;;;5000768;28;20069;-85
2021/03/15 11:17:33;;;;;;;11.35;8.23;;;;;;;;;;5000967;28;20029;-85
2021/03/15 11:19:59;;;;;;;9.63;8.20;;;;;;;;;;5000940;28;20034;-85
2021/03/15 11:22:25;;;;;;;12.90;8.68;;;;;;;;;;5001107;28;20037;-85
2021/03/15 11:25:07;;;;;;;12.98;8.73;;;;;;;;;;5000629;28;20062;-85
2021/03/15 11:27:34;;;;;;;11.23;8.30;;;;;;;;;;5000652;28;20035;-85
2021/03/15 11:30:00;;;;;;;12.18;8.13;;;;;;;;;;5000788;28;20034;-85
2021/03/15 11:32:26;;;;;;;10.95;8.27;;;;;;;;;;5000618;28;20027;-85
2021/03/15 11:34:52;;;;;;;14.27;10.23;;;;;;;;;;5000626;28;20113;-85
2021/03/15 11:37:28;;;;;;;14.60;9.52;;;;;;;;;;5000750;28;20027;-85
2021/03/15 11:39:54;;;;;;;16.05;10.13;;;;;;;;;;5000518;28;20026;-84
2021/03/15 11:42:24;;;;;;;16.73;9.32;;;;;;;;;;5000329;28;20401;-85
2021/03/15 11:44:50;;;;;;;13.30;8.32;;;;;;;;;;4999278;28;20064;-85
2021/03/15 11:47:16;;;;;;;11.55;7.35;;;;;;;;;;5000378;28;20104;-85
2021/03/15 11:49:42;;;;;;;14.25;7.68;;;;;;;;;;5000236;28;20038;-85
2021/03/15 11:52:08;;;;;;;13.48;8.13;;;;;;;;;;5000059;28;20071;-85
2021/03/15 11:54:34;;;;;;;14.48;7.72;;;;;;;;;;5000208;28;20069;-86
2021/03/15 11:57:00;;;;;;;16.50;8.45;;;;;;;;;;5000102;28;20111;-85
2021/03/15 11:59:27;;;;;;;15.82;8.85;;;;;;;;;;5000039;28;20113;-84
2021/03/15 12:01:53;;;;;;;15.07;8.20;;;;;;;;;;5000174;28;20037;-85
2021/03/15 12:04:19;;;;;;;12.88;8.27;;;;;;;;;;4998839;28;20038;-85
2021/03/15 12:06:46;;;;;;;13.40;8.05;;;;;;;;;;4999063;28;20026;-85
2021/03/15 12:09:12;;;;;;;14.43;8.13;;;;;;;;;;4999905;28;20058;-84
2021/03/15 12:11:38;;;;;;;10.88;7.57;;;;;;;;;;4999871;28;20129;-84
2021/03/15 12:14:04;;;;;;;14.30;8.32;;;;;;;;;;4999853;28;20401;-88
2021/03/15 12:16:30;;;;;;;15.48;8.07;;;;;;;;;;4999863;28;20055;-84
2021/03/15 12:18:56;;;;;;;16.13;10.10;;;;;;;;;;4999757;28;20406;-85
2021/03/15 12:21:23;;;;;;;14.93;8.82;;;;;;;;;;4998434;28;20038;-85
2021/03/15 12:23:49;;;;;;;15.60;9.65;;;;;;;;;;4999591;28;20034;-85
2021/03/15 12:26:15;;;;;;;16.52;10.23;;;;;;;;;;4999622;28;20022;-85
2021/03/15 12:28:42;;;;;;;17.85;10.27;;;;;;;;;;5008154;28;20034;-86
2021/03/15 12:31:08;;;;;;;17.40;10.48;;;;;;;;;;5019151;28;20313;-85
2021/03/15 12:33:34;;;;;;;25.38;14.10;;;;;;;;;;5018999;28;20109;-84
2021/03/15 12:36:00;;;;;;;29.70;17.70;;;;;;;;;;5009403;28;20512;-84
2021/03/15 12:38:26;;;;;;;47.75;33.88;;;;;;;;;;5007027;28;20365;-84
2021/03/15 12:40:52;;;;;;;34.92;20.25;;;;;;;;;;5010345;28;20022;-84
2021/03/15 12:43:18;;;;;;;29.35;15.30;;;;;;;;;;5019060;28;20096;-85
2021/03/15 12:45:44;;;;;;;39.15;14.80;;;;;;;;;;5018849;28;20025;-85
2021/03/15 12:48:11;;;;;;;21.73;10.80;;;;;;;;;;5018828;28;20052;-84
2021/03/15 12:50:37;;;;;;;14.95;10.38;;;;;;;;;;5018382;28;20041;-84
2021/03/15 12:53:03;;;;;;;18.05;12.35;;;;;;;;;;5017134;28;20332;-85
2021/03/15 12:55:29;;;;;;;11.77;9.05;;;;;;;;;;5017049;28;20068;-86
2021/03/15 12:57:55;;;;;;;14.50;10.20;;;;;;;;;;5018450;28;20049;-85
2021/03/15 13:00:21;;;;;;;15.90;10.70;;;;;;;;;;5018544;28;20022;-85
2021/03/15 13:02:48;;;;;;;18.83;12.02;;;;;;;;;;5018640;28;20026;-83
2021/03/15 13:05:14;;;;;;;25.15;11.68;;;;;;;;;;5018282;28;20022;-84
2021/03/15 13:07:40;;;;;;;17.85;11.05;;;;;;;;;;5017998;28;20466;-83
2021/03/15 13:10:07;;;;;;;20.15;11.80;;;;;;;;;;5018102;28;20047;-83
2021/03/15 13:12:33;;;;;;;17.20;11.23;;;;;;;;;;5018386;28;20030;-84
2021/03/15 13:15:00;;;;;;;18.85;10.95;;;;;;;;;;5018258;28;20022;-83
2021/03/15 13:17:28;;;;;;;17.20;11.57;;;;;;;;;;5016897;28;20073;-84
2021/03/15 13:19:54;;;;;;;19.35;10.98;;;;;;;;;;5017176;28;20029;-84
2021/03/15 13:22:20;;;;;;;16.23;11.32;;;;;;;;;;5013210;28;20413;-84
2021/03/15 13:24:48;;;;;;;20.45;12.52;;;;;;;;;;5001111;28;20034;-84
2021/03/15 13:27:14;;;;;;;19.08;14.13;;;;;;;;;;4998223;28;20471;-84
2021/03/15 13:29:40;;;;;;;23.38;14.35;;;;;;;;;;4998228;28;20034;-84
2021/03/15 13:32:06;;;;;;;23.25;17.20;;;;;;;;;;4998302;28;20035;-83
2021/03/15 13:44:25;;;;;;;32.55;21.10;;;;;;;;;;5012765;22;20033;-84
2021/03/15 13:46:51;;;;;;;29.67;18.52;;;;;;;;;;4976133;28;20049;-84
2021/03/15 13:49:17;;;;;;;23.48;13.27;;;;;;;;;;4977347;28;20038;-84
2021/03/15 14:13:09;;;;;;;26.48;16.20;;;;;;;;;;4979332;28;20095;-84
2021/03/15 14:15:35;;;;;;;23.88;15.07;;;;;;;;;;5005579;23;20061;-83
2021/03/15 14:18:01;;;;;;;25.05;14.60;;;;;;;;;;4997761;28;20034;-84
2021/03/15 14:20:28;;;;;;;25.23;16.02;;;;;;;;;;4997877;28;20026;-83
2021/03/15 14:22:54;;;;;;;39.88;23.30;;;;;;;;;;4997613;28;20066;-83
2021/03/15 14:25:20;;;;;;;32.65;21.15;;;;;;;;;;4980478;28;20376;-83
2021/03/15 14:27:46;;;;;;;33.45;22.35;;;;;;;;;;4997621;28;20030;-83
2021/03/15 14:30:13;;;;;;;29.83;19.77;;;;;;;;;;4997509;28;20041;-84
2021/03/15 14:32:39;;;;;;;27.27;18.88;;;;;;;;;;4980659;28;20442;-83
2021/03/15 14:35:05;;;;;;;25.60;16.85;;;;;;;;;;4997613;28;20081;-83
2021/03/15 14:37:31;;;;;;;27.17;15.73;;;;;;;;;;4997631;28;20026;-83
2021/03/15 14:39:58;;;;;;;24.83;14.98;;;;;;;;;;4997483;28;20022;-83
2021/03/15 14:42:24;;;;;;;23.83;13.65;;;;;;;;;;4997486;28;20026;-84
2021/03/15 14:44:50;;;;;;;22.13;14.18;;;;;;;;;;4997883;28;20034;-84
2021/03/15 14:47:16;;;;;;;25.67;15.45;;;;;;;;;;4981687;28;20026;-83
2021/03/15 14:49:42;;;;;;;29.38;18.02;;;;;;;;;;5000959;28;20030;-83
2021/03/15 14:52:08;;;;;;;25.60;16.55;;;;;;;;;;5001122;28;20113;-83
2021/03/15 14:54:34;;;;;;;32.90;17.73;;;;;;;;;;5001137;28;20435;-83
2021/03/15 14:57:00;;;;;;;30.77;18.17;;;;;;;;;;5000938;28;20030;-83
2021/03/15 14:59:26;;;;;;;30.40;18.95;;;;;;;;;;5001301;28;20081;-83
2021/03/15 15:01:52;;;;;;;51.85;19.88;;;;;;;;;;5001128;28;20101;-83
2021/03/15 15:04:19;;;;;;;35.33;21.73;;;;;;;;;;5000964;28;20027;-83
2021/03/15 15:06:46;;;;;;;36.85;23.25;;;;;;;;;;5000916;28;20410;-83